Terminal Aerodrome Forecast
Issued by NWS Blacksburg, VA

Home | Current Version | Previous Version | Text Only | Print | Product List | Glossary On
Versions: 1 2 3 4 5 6 7 8 9 10 11 12 13 14
000
FTUS41 KRNK 181900 AAB
TAFROA
TAF AMD
KROA 181900Z 1819/1918 29010G20KT P6SM VCSH BKN050
      TEMPO 1819/1822 4SM -TSRA OVC035CB
     FM182200 26007KT P6SM VCSH BKN040
     FM190000 29004KT P6SM SCT090
     FM191300 30007KT P6SM FEW250=

USA.gov is the U.S. government's official web portal to all federal, state and local government web resources and services.